Pheafan — 3EKS — position and weather

sailwx.info

Track history (hours):
 
Tides and Currents Weather Stations Pressure Air Temp Water Temp Dewpoint Dewpoint Depression Visibility Wind Speed Wind Dir Waves Ship Positions

Pheafan

Last reported at 2017-Dec-15 20:38 UTC. Time now 2017-Dec-16 05:34 UTC.
Position N 55°53' W 007°04'.

Length 160 m; draft 9.7 m.

Type: Cargo ship. MMSI: 353095000.

Date/timePositionNaut miles runAvg speedWind from/ knotsBaromVisibWave heightAir tempDewpointWater temp
2017-Dec-15 20:38N 55°53' W 007°04'1 8.9
2017-Dec-15 20:30N 55°52' W 007°03'4 8.8
2017-Dec-15 20:00N 55°49' W 006°58'4 8.6
2017-Dec-15 19:30N 55°46' W 006°53'4 7.9
2017-Dec-15 19:00N 55°43' W 006°48'4 7.4
2017-Dec-15 18:30N 55°40' W 006°43'3 6.7
2017-Dec-15 18:00N 55°38' W 006°38'4 7.6
2017-Dec-15 17:30N 55°36' W 006°33'4 7.7
2017-Dec-15 17:00N 55°33' W 006°28'4 7.7
2017-Dec-15 16:30N 55°30' W 006°24'4 8.4
2017-Dec-15 16:00N 55°27' W 006°18'5 9.1
2017-Dec-15 15:30N 55°25' W 006°11'510.4
2017-Dec-15 15:00N 55°24' W 006°03'611.4
2017-Dec-15 14:30N 55°19' W 005°56'612.3
2017-Dec-15 14:00N 55°14' W 005°50'1613.0
2017-Dec-15 12:46N 55°01' W 005°33'313.3
2017-Dec-15 12:30N 54°59' W 005°30'713.6
2017-Dec-15 12:00N 54°53' W 005°23'612.9
2017-Dec-15 11:30N 54°47' W 005°17'612.7
2017-Dec-15 11:00N 54°42' W 005°11'611.5
2017-Dec-15 10:30N 54°37' W 005°07'510.8
2017-Dec-15 10:00N 54°31' W 005°08'510.4
2017-Dec-15 09:30N 54°26' W 005°08'510.3
2017-Dec-15 09:00N 54°21' W 005°09'510.1
2017-Dec-15 08:30N 54°16' W 005°09'510.4
2017-Dec-15 08:00N 54°11' W 005°09'610.4
2017-Dec-15 07:28N 54°05' W 005°10'13410.4
2017-Dec-14 18:30N 51°58' W 006°19'713.1
2017-Dec-14 17:59N 51°54' W 006°28'913.0
2017-Dec-14 17:17N 51°49' W 006°41'612.9
2017-Dec-14 16:48N 51°47' W 006°50'412.9
2017-Dec-14 16:30N 51°45' W 006°56'1212.9
2017-Dec-14 15:34N 51°41' W 007°14'713.0
2017-Dec-14 15:00N 51°38' W 007°24'713.1
2017-Dec-14 14:31N 51°35' W 007°34'713.1
2017-Dec-14 14:00N 51°32' W 007°43'4 8.5
2017-Dec-14 13:30N 51°28' W 007°43'5 9.2
2017-Dec-14 12:59N 51°23' W 007°40'4 8.8
2017-Dec-14 12:28N 51°19' W 007°37'  
2017-Dec-10 17:46N 39°23' W 009°51'311.5
2017-Dec-10 17:29N 39°20' W 009°51'511.5
2017-Dec-10 17:00N 39°15' W 009°51'611.7
2017-Dec-10 16:30N 39°09' W 009°51'612.0
2017-Dec-10 16:00N 39°03' W 009°51'612.0
2017-Dec-10 15:30N 38°57' W 009°51'612.2
2017-Dec-10 15:00N 38°51' W 009°51'612.2
2017-Dec-10 14:30N 38°45' W 009°51'612.0
2017-Dec-10 14:00N 38°39' W 009°50'612.0
2017-Dec-10 13:30N 38°33' W 009°48'612.2
2017-Dec-10 13:00N 38°27' W 009°47'612.0
2017-Dec-10 12:30N 38°21' W 009°45'611.9
2017-Dec-10 12:00N 38°15' W 009°43'612.2
2017-Dec-10 11:30N 38°09' W 009°42'612.0
2017-Dec-10 11:00N 38°04' W 009°40'612.0
2017-Dec-10 10:30N 37°58' W 009°38'611.9
2017-Dec-10 10:00N 37°52' W 009°36'612.0
2017-Dec-10 09:30N 37°46' W 009°35'612.1
2017-Dec-10 09:00N 37°40' W 009°34'7010.6
2017-Dec-10 02:27N 36°40' W 008°50'  
Track history (hours):
 
Tides and Currents Weather Stations Pressure Air Temp Water Temp Dewpoint Dewpoint Depression Visibility Wind Speed Wind Dir Waves Ship Positions

Pheafan

Last reported at 2017-Dec-15 20:38 UTC. Time now 2017-Dec-16 05:34 UTC.
Position N 55°53' W 007°04'.

Length 160 m; draft 9.7 m.

Type: Cargo ship. MMSI: 353095000.

Date/timePositionNaut miles runAvg speedWind from/ knotsBaromVisibWave heightAir tempDewpointWater temp
2017-Dec-15 20:38N 55°53' W 007°04'1 8.9
2017-Dec-15 20:30N 55°52' W 007°03'4 8.8
2017-Dec-15 20:00N 55°49' W 006°58'4 8.6
2017-Dec-15 19:30N 55°46' W 006°53'4 7.9
2017-Dec-15 19:00N 55°43' W 006°48'4 7.4
2017-Dec-15 18:30N 55°40' W 006°43'3 6.7
2017-Dec-15 18:00N 55°38' W 006°38'4 7.6
2017-Dec-15 17:30N 55°36' W 006°33'4 7.7
2017-Dec-15 17:00N 55°33' W 006°28'4 7.7
2017-Dec-15 16:30N 55°30' W 006°24'4 8.4
2017-Dec-15 16:00N 55°27' W 006°18'5 9.1
2017-Dec-15 15:30N 55°25' W 006°11'510.4
2017-Dec-15 15:00N 55°24' W 006°03'611.4
2017-Dec-15 14:30N 55°19' W 005°56'612.3
2017-Dec-15 14:00N 55°14' W 005°50'1613.0
2017-Dec-15 12:46N 55°01' W 005°33'313.3
2017-Dec-15 12:30N 54°59' W 005°30'713.6
2017-Dec-15 12:00N 54°53' W 005°23'612.9
2017-Dec-15 11:30N 54°47' W 005°17'612.7
2017-Dec-15 11:00N 54°42' W 005°11'611.5
2017-Dec-15 10:30N 54°37' W 005°07'510.8
2017-Dec-15 10:00N 54°31' W 005°08'510.4
2017-Dec-15 09:30N 54°26' W 005°08'510.3
2017-Dec-15 09:00N 54°21' W 005°09'510.1
2017-Dec-15 08:30N 54°16' W 005°09'510.4
2017-Dec-15 08:00N 54°11' W 005°09'610.4
2017-Dec-15 07:28N 54°05' W 005°10'13410.4
2017-Dec-14 18:30N 51°58' W 006°19'713.1
2017-Dec-14 17:59N 51°54' W 006°28'913.0
2017-Dec-14 17:17N 51°49' W 006°41'612.9
2017-Dec-14 16:48N 51°47' W 006°50'412.9
2017-Dec-14 16:30N 51°45' W 006°56'1212.9
2017-Dec-14 15:34N 51°41' W 007°14'713.0
2017-Dec-14 15:00N 51°38' W 007°24'713.1
2017-Dec-14 14:31N 51°35' W 007°34'713.1
2017-Dec-14 14:00N 51°32' W 007°43'4 8.5
2017-Dec-14 13:30N 51°28' W 007°43'5 9.2
2017-Dec-14 12:59N 51°23' W 007°40'4 8.8
2017-Dec-14 12:28N 51°19' W 007°37'  
2017-Dec-10 17:46N 39°23' W 009°51'311.5
2017-Dec-10 17:29N 39°20' W 009°51'511.5
2017-Dec-10 17:00N 39°15' W 009°51'611.7
2017-Dec-10 16:30N 39°09' W 009°51'612.0
2017-Dec-10 16:00N 39°03' W 009°51'612.0
2017-Dec-10 15:30N 38°57' W 009°51'612.2
2017-Dec-10 15:00N 38°51' W 009°51'612.2
2017-Dec-10 14:30N 38°45' W 009°51'612.0
2017-Dec-10 14:00N 38°39' W 009°50'612.0
2017-Dec-10 13:30N 38°33' W 009°48'612.2
2017-Dec-10 13:00N 38°27' W 009°47'612.0
2017-Dec-10 12:30N 38°21' W 009°45'611.9
2017-Dec-10 12:00N 38°15' W 009°43'612.2
2017-Dec-10 11:30N 38°09' W 009°42'612.0
2017-Dec-10 11:00N 38°04' W 009°40'612.0
2017-Dec-10 10:30N 37°58' W 009°38'611.9
2017-Dec-10 10:00N 37°52' W 009°36'612.0
2017-Dec-10 09:30N 37°46' W 009°35'612.1
2017-Dec-10 09:00N 37°40' W 009°34'7010.6
2017-Dec-10 02:27N 36°40' W 008°50'  

Dump ship's entire track history